createdAt,value
2022-08-09T00:01:43.189Z,78.95
2022-08-09T00:05:03.679Z,79.20
2022-08-09T00:08:32.627Z,78.99
2022-08-09T00:12:03.089Z,79.84
2022-08-09T00:14:57.078Z,79.90
2022-08-09T00:18:05.584Z,80.11
2022-08-09T00:21:13.396Z,80.48
2022-08-09T00:24:15.070Z,80.76
2022-08-09T00:27:16.678Z,81.29
2022-08-09T00:30:25.683Z,81.38
2022-08-09T00:33:32.593Z,81.71
2022-08-09T00:36:50.845Z,81.27
2022-08-09T00:40:12.713Z,81.38
2022-08-09T00:44:24.880Z,81.29
2022-08-09T00:46:55.983Z,81.37
2022-08-09T00:49:59.683Z,82.02
2022-08-09T00:53:10.521Z,82.02
2022-08-09T00:56:13.917Z,82.12
2022-08-09T00:59:20.050Z,82.41
2022-08-09T01:02:43.023Z,82.79
2022-08-09T01:05:55.456Z,83.07
2022-08-09T01:09:18.674Z,83.65
2022-08-09T01:12:52.983Z,84.03
2022-08-09T01:15:57.878Z,84.08
2022-08-09T01:19:17.106Z,84.11
2022-08-09T01:23:05.457Z,83.83
2022-08-09T01:27:04.486Z,83.76
2022-08-09T01:30:28.576Z,84.01
2022-08-09T01:33:38.333Z,84.43
2022-08-09T01:36:41.950Z,84.20
2022-08-09T01:39:46.429Z,84.38
2022-08-09T01:42:50.109Z,84.68
2022-08-09T01:45:54.277Z,84.81
2022-08-09T01:49:10.783Z,84.80
2022-08-09T01:52:18.266Z,84.88
2022-08-09T01:55:22.801Z,85.33
2022-08-09T01:58:27.260Z,85.39
2022-08-09T02:01:58.317Z,85.24
2022-08-09T02:04:53.789Z,85.42
2022-08-09T02:08:39.640Z,85.50
2022-08-09T02:11:42.843Z,85.70
2022-08-09T02:14:48.426Z,86.08
2022-08-09T02:18:09.259Z,85.91
2022-08-09T02:21:22.122Z,86.42
2022-08-09T02:24:29.598Z,86.25
2022-08-09T02:27:43.484Z,86.63
2022-08-09T02:31:01.689Z,86.06
2022-08-09T02:34:13.852Z,86.32
2022-08-09T02:37:31.835Z,86.32
2022-08-09T02:40:39.965Z,86.42
2022-08-09T02:43:54.693Z,86.48
2022-08-09T02:47:00.911Z,86.72
2022-08-09T02:50:11.044Z,86.59
2022-08-09T02:53:26.191Z,86.34
2022-08-09T02:56:31.680Z,86.37
2022-08-09T02:59:37.000Z,86.61
2022-08-09T03:02:58.090Z,86.79
2022-08-09T03:06:03.378Z,86.80
2022-08-09T03:09:07.811Z,87.37
2022-08-09T03:12:13.536Z,87.42
2022-08-09T03:15:16.316Z,87.22
2022-08-09T03:18:19.207Z,87.37
2022-08-09T03:21:36.539Z,88.00
2022-08-09T03:24:51.836Z,88.09
2022-08-09T03:27:55.574Z,88.09
2022-08-09T03:30:58.845Z,88.51
2022-08-09T03:34:02.959Z,88.49
2022-08-09T03:37:54.766Z,88.44
2022-08-09T03:40:31.002Z,88.65
2022-08-09T03:43:33.124Z,88.40
2022-08-09T03:46:35.351Z,88.67
2022-08-09T03:49:37.987Z,89.09
2022-08-09T03:52:42.486Z,89.22
2022-08-09T03:55:44.197Z,89.35
2022-08-09T03:58:46.469Z,89.19
2022-08-09T04:01:53.789Z,89.14
2022-08-09T04:05:06.424Z,89.41
2022-08-09T04:08:08.601Z,89.39
2022-08-09T04:11:11.358Z,89.17
2022-08-09T04:14:53.557Z,89.24
2022-08-09T04:17:34.658Z,89.21
2022-08-09T04:20:36.830Z,89.12
2022-08-09T04:23:38.448Z,88.97
2022-08-09T04:26:41.565Z,89.28
2022-08-09T04:29:49.909Z,89.67
2022-08-09T04:32:52.516Z,89.73
2022-08-09T04:35:55.848Z,90.24
2022-08-09T04:39:00.531Z,90.44
2022-08-09T04:42:03.609Z,90.61
2022-08-09T04:45:05.640Z,90.21
2022-08-09T04:48:10.385Z,90.40
2022-08-09T04:51:12.739Z,90.86
2022-08-09T04:54:20.367Z,90.74
2022-08-09T04:57:24.522Z,90.85
2022-08-09T05:00:31.907Z,91.39
2022-08-09T05:03:42.632Z,91.14
2022-08-09T05:06:45.568Z,90.87
2022-08-09T05:09:52.220Z,90.63
2022-08-09T05:12:53.807Z,90.54
2022-08-09T05:15:56.976Z,89.77
2022-08-09T05:19:00.329Z,90.55
2022-08-09T05:22:02.408Z,90.87
2022-08-09T05:25:05.324Z,90.40
2022-08-09T05:28:06.978Z,89.52
2022-08-09T05:31:09.613Z,89.05
2022-08-09T05:34:16.662Z,88.57
2022-08-09T05:37:19.086Z,87.64
2022-08-09T05:40:21.783Z,85.13
2022-08-09T05:43:23.996Z,84.39
2022-08-09T05:46:30.630Z,84.48
2022-08-09T05:50:19.552Z,84.49
2022-08-09T05:52:55.015Z,84.01
2022-08-09T05:55:56.713Z,84.54
2022-08-09T05:58:58.880Z,83.71
2022-08-09T06:02:00.758Z,82.93
2022-08-09T06:05:03.953Z,82.58
2022-08-09T06:08:08.923Z,82.21
2022-08-09T06:11:17.471Z,81.44
2022-08-09T06:14:19.436Z,79.46
2022-08-09T06:17:21.034Z,78.62
2022-08-09T06:20:25.131Z,75.79
2022-08-09T06:23:58.298Z,73.37
2022-08-09T06:26:50.987Z,71.65
2022-08-09T06:29:58.598Z,71.53
2022-08-09T06:33:30.422Z,72.74
2022-08-09T06:36:32.989Z,71.16
2022-08-09T06:39:48.775Z,71.00
2022-08-09T06:42:56.433Z,71.45
2022-08-09T06:46:08.062Z,72.03
2022-08-09T06:49:16.066Z,71.10
2022-08-09T06:52:25.122Z,70.76
2022-08-09T06:55:31.814Z,70.52
2022-08-09T07:00:52.658Z,70.04
2022-08-09T07:01:59.478Z,69.49
2022-08-09T07:05:07.253Z,70.11
2022-08-09T07:08:09.090Z,69.74
2022-08-09T07:11:12.565Z,70.09
2022-08-09T07:14:18.098Z,69.84
2022-08-09T07:17:28.449Z,68.88
2022-08-09T07:20:43.325Z,68.65
2022-08-09T07:23:56.565Z,66.49
2022-08-09T07:27:01.603Z,66.00
2022-08-09T07:30:06.797Z,66.28
2022-08-09T07:33:10.265Z,66.29
2022-08-09T07:36:17.832Z,65.73
2022-08-09T07:39:41.644Z,65.17
2022-08-09T07:42:59.211Z,65.11
2022-08-09T07:46:02.020Z,64.71
2022-08-09T07:49:05.484Z,64.25
2022-08-09T07:52:17.189Z,63.76
2022-08-09T07:55:19.541Z,63.95
2022-08-09T07:58:26.332Z,62.86
2022-08-09T08:01:33.888Z,62.21
2022-08-09T08:04:37.306Z,62.10
2022-08-09T08:09:00.595Z,62.05
2022-08-09T08:11:15.280Z,61.66
2022-08-09T08:14:24.173Z,60.17
2022-08-09T08:17:51.965Z,60.42
2022-08-09T08:20:51.726Z,59.10
2022-08-09T08:23:55.651Z,59.48
2022-08-09T08:26:58.002Z,59.66
2022-08-09T08:29:59.684Z,59.20
2022-08-09T08:33:06.122Z,57.55
2022-08-09T08:36:13.720Z,57.61
2022-08-09T08:39:33.043Z,56.57
2022-08-09T08:42:47.187Z,57.24
2022-08-09T08:46:03.695Z,58.10
2022-08-09T08:49:19.138Z,56.31
2022-08-09T08:55:52.577Z,55.21
2022-08-09T08:58:54.593Z,55.41
2022-08-09T09:01:59.877Z,55.63
2022-08-09T09:05:09.917Z,55.22
2022-08-09T09:08:30.031Z,55.61
2022-08-09T09:11:38.423Z,56.27
2022-08-09T09:14:42.069Z,53.54
2022-08-09T09:17:48.600Z,54.30
2022-08-09T09:20:53.599Z,52.42
2022-08-09T09:24:05.436Z,53.75
2022-08-09T09:28:06.518Z,53.84
2022-08-09T09:30:56.039Z,53.49
2022-08-09T09:34:18.047Z,52.39
2022-08-09T09:37:32.197Z,50.85
2022-08-09T09:40:46.300Z,52.07
2022-08-09T09:44:11.927Z,51.15
2022-08-09T09:47:15.169Z,49.90
2022-08-09T09:50:23.113Z,49.62
2022-08-09T09:53:44.046Z,48.96
2022-08-09T09:58:00.167Z,48.58
2022-08-09T10:00:30.325Z,50.32
2022-08-09T10:03:44.609Z,49.17
2022-08-09T10:06:52.178Z,48.38
2022-08-09T10:09:58.107Z,49.76
2022-08-09T10:13:04.824Z,48.39
2022-08-09T10:16:55.625Z,47.18
2022-08-09T10:19:36.749Z,47.73
2022-08-09T10:22:39.039Z,47.92
2022-08-09T10:26:07.111Z,46.83
2022-08-09T10:29:23.505Z,48.18
2022-08-09T10:32:40.376Z,45.94
2022-08-09T10:35:45.447Z,45.50
2022-08-09T10:38:57.063Z,46.21
2022-08-09T10:42:01.949Z,43.90
2022-08-09T10:45:11.894Z,44.29
2022-08-09T10:48:30.431Z,46.97
2022-08-09T10:51:45.609Z,44.65
2022-08-09T10:54:54.746Z,44.97
2022-08-09T10:58:00.097Z,45.54
2022-08-09T11:03:03.300Z,44.49
2022-08-09T11:04:31.564Z,43.42
2022-08-09T11:07:57.270Z,43.58
2022-08-09T11:10:59.799Z,43.68
2022-08-09T11:14:34.218Z,42.34
2022-08-09T11:17:42.943Z,43.27
2022-08-09T11:20:50.084Z,42.81
2022-08-09T11:24:10.600Z,43.03
2022-08-09T11:28:03.003Z,42.60
2022-08-09T11:30:55.847Z,42.03
2022-08-09T11:34:03.019Z,44.11
2022-08-09T11:37:07.592Z,42.06
2022-08-09T11:40:13.179Z,43.94
2022-08-09T11:43:25.770Z,43.85
2022-08-09T11:46:51.924Z,43.78
2022-08-09T11:50:56.228Z,44.19
2022-08-09T11:53:59.569Z,43.29
2022-08-09T11:56:47.998Z,41.92
2022-08-09T11:59:52.269Z,41.06
2022-08-09T12:02:54.610Z,42.00
2022-08-09T12:05:58.971Z,41.90
2022-08-09T12:09:19.732Z,41.69
2022-08-09T12:12:29.186Z,43.17
2022-08-09T12:15:50.478Z,41.07
2022-08-09T12:18:54.767Z,41.36
2022-08-09T12:22:01.217Z,42.93
2022-08-09T12:25:16.818Z,41.89
2022-08-09T12:29:09.975Z,42.43
2022-08-09T12:32:01.604Z,42.86
2022-08-09T12:35:12.423Z,43.46
2022-08-09T12:38:37.797Z,43.47
2022-08-09T12:41:40.590Z,42.07
2022-08-09T12:44:42.860Z,43.46
2022-08-09T12:47:53.910Z,42.35
2022-08-09T12:50:56.719Z,43.59
2022-08-09T12:54:05.920Z,43.53
2022-08-09T12:57:08.414Z,44.35
2022-08-09T13:00:25.232Z,42.83
2022-08-09T13:03:52.674Z,43.45
2022-08-09T13:06:55.042Z,43.21
2022-08-09T13:10:06.065Z,41.90
2022-08-09T13:13:10.140Z,42.84
2022-08-09T13:16:15.890Z,42.49
2022-08-09T13:20:06.992Z,41.33
2022-08-09T13:24:05.895Z,40.81
2022-08-09T13:26:36.475Z,40.88
2022-08-09T13:30:02.577Z,40.96
2022-08-09T13:33:00.693Z,40.17
2022-08-09T13:36:39.814Z,40.11
2022-08-09T13:41:20.918Z,41.16
2022-08-09T13:42:46.710Z,38.80
2022-08-09T13:46:42.936Z,39.60
2022-08-09T13:49:18.029Z,39.96
2022-08-09T13:52:20.711Z,38.91
2022-08-09T13:55:22.393Z,39.45
2022-08-09T13:58:24.214Z,40.50
2022-08-09T14:02:01.296Z,40.60
2022-08-09T14:04:49.511Z,39.80
2022-08-09T14:08:06.082Z,38.91
2022-08-09T14:11:09.896Z,39.05
2022-08-09T14:14:26.150Z,37.57
2022-08-09T14:17:53.222Z,38.63
2022-08-09T14:20:50.339Z,38.63
2022-08-09T14:23:56.518Z,39.26
2022-08-09T14:27:02.585Z,38.09
2022-08-09T14:30:37.359Z,38.63
2022-08-09T14:33:26.461Z,38.94
2022-08-09T14:36:35.320Z,38.97
2022-08-09T14:39:46.842Z,38.91
2022-08-09T14:42:50.613Z,39.17
2022-08-09T14:46:56.646Z,38.43
2022-08-09T14:49:15.306Z,38.43
2022-08-09T14:52:18.007Z,37.72
2022-08-09T14:55:20.360Z,37.61
2022-08-09T14:58:23.288Z,39.01
2022-08-09T15:01:24.926Z,38.18
2022-08-09T15:04:27.572Z,38.44
2022-08-09T15:07:35.107Z,38.50
2022-08-09T15:10:37.902Z,39.04
2022-08-09T15:13:48.064Z,37.99
2022-08-09T15:16:58.277Z,38.17
2022-08-09T15:20:02.743Z,37.62
2022-08-09T15:24:00.797Z,36.29
2022-08-09T15:26:31.826Z,37.85
2022-08-09T15:30:56.258Z,37.67
2022-08-09T15:32:55.799Z,37.61
2022-08-09T15:36:02.007Z,37.10
2022-08-09T15:39:07.351Z,37.50
2022-08-09T15:42:09.311Z,36.70
2022-08-09T15:45:15.384Z,36.95
2022-08-09T15:48:28.903Z,38.02
2022-08-09T15:52:01.996Z,38.03
2022-08-09T15:54:54.394Z,37.14
2022-08-09T15:57:56.025Z,37.20
2022-08-09T16:00:57.792Z,36.75
2022-08-09T16:03:59.446Z,37.40
2022-08-09T16:07:02.609Z,36.03
2022-08-09T16:10:55.883Z,36.09
2022-08-09T16:14:06.104Z,35.90
2022-08-09T16:17:03.870Z,36.29
2022-08-09T16:20:09.236Z,36.74
2022-08-09T16:23:11.533Z,36.09
2022-08-09T16:26:20.112Z,37.27
2022-08-09T16:29:37.969Z,36.72
2022-08-09T16:33:09.668Z,37.53
2022-08-09T16:36:16.311Z,37.18
2022-08-09T16:39:20.567Z,37.37
2022-08-09T16:42:23.743Z,37.91
2022-08-09T16:45:27.258Z,38.30
2022-08-09T16:48:39.725Z,38.08
2022-08-09T16:51:54.028Z,37.30
2022-08-09T16:54:57.335Z,38.09
2022-08-09T16:58:10.401Z,37.40
2022-08-09T17:01:13.727Z,37.55
2022-08-09T17:04:25.540Z,38.26
2022-08-09T17:08:42.778Z,37.25
2022-08-09T17:10:51.856Z,36.91
2022-08-09T17:14:01.030Z,37.41
2022-08-09T17:17:26.079Z,37.35
2022-08-09T17:20:32.647Z,37.43
2022-08-09T17:24:26.867Z,38.03
2022-08-09T17:27:01.329Z,38.68
2022-08-09T17:30:12.867Z,38.66
2022-08-09T17:33:22.300Z,38.02
2022-08-09T17:36:24.805Z,37.71
2022-08-09T17:39:27.667Z,37.71
2022-08-09T17:42:49.283Z,37.33
2022-08-09T17:46:04.247Z,38.37
2022-08-09T17:49:08.118Z,38.36
2022-08-09T17:52:20.593Z,37.82
2022-08-09T17:55:24.381Z,38.63
2022-08-09T17:58:45.940Z,38.49
2022-08-09T18:02:07.464Z,38.86
2022-08-09T18:05:13.178Z,38.48
2022-08-09T18:08:15.141Z,37.96
2022-08-09T18:11:18.093Z,38.04
2022-08-09T18:14:25.721Z,38.42
2022-08-09T18:18:01.730Z,38.64
2022-08-09T18:20:54.501Z,39.72
2022-08-09T18:24:11.282Z,39.75
2022-08-09T18:27:18.773Z,39.74
2022-08-09T18:30:49.406Z,40.32
2022-08-09T18:33:53.480Z,40.47
2022-08-09T18:36:55.990Z,40.65
2022-08-09T18:39:57.880Z,41.40
2022-08-09T18:42:59.637Z,43.41
2022-08-09T18:46:49.688Z,44.28
2022-08-09T18:49:23.826Z,44.92
2022-08-09T18:52:34.454Z,46.19
2022-08-09T18:55:45.464Z,47.94
2022-08-09T18:58:58.445Z,48.11
2022-08-09T19:02:03.186Z,48.11
2022-08-09T19:05:20.405Z,48.23
2022-08-09T19:08:28.735Z,48.83
2022-08-09T19:11:37.606Z,48.98
2022-08-09T19:14:39.787Z,49.28
2022-08-09T19:17:54.463Z,49.45
2022-08-09T19:20:58.425Z,50.27
2022-08-09T19:24:36.495Z,51.39
2022-08-09T19:27:21.970Z,51.18
2022-08-09T19:30:28.684Z,51.75
2022-08-09T19:33:30.927Z,52.88
2022-08-09T19:36:32.868Z,53.01
2022-08-09T19:40:02.970Z,53.22
2022-08-09T19:42:56.851Z,53.83
2022-08-09T19:45:58.573Z,54.41
2022-08-09T19:50:07.498Z,54.50
2022-08-09T19:52:22.481Z,54.59
2022-08-09T19:55:53.056Z,54.71
2022-08-09T19:59:18.252Z,55.04
2022-08-09T20:02:18.203Z,55.75
2022-08-09T20:05:46.357Z,55.98
2022-08-09T20:08:56.864Z,56.46
2022-08-09T20:12:02.523Z,56.75
2022-08-09T20:16:31.812Z,56.99
2022-08-09T20:18:28.158Z,56.97
2022-08-09T20:21:40.975Z,57.38
2022-08-09T20:24:54.143Z,57.76
2022-08-09T20:27:56.418Z,58.11
2022-08-09T20:30:58.023Z,57.61
2022-08-09T20:34:02.389Z,57.69
2022-08-09T20:37:04.144Z,57.51
2022-08-09T20:40:14.974Z,58.07
2022-08-09T20:43:25.308Z,57.97
2022-08-09T20:46:42.386Z,58.06
2022-08-09T20:49:46.478Z,58.09
2022-08-09T20:52:48.539Z,58.61
2022-08-09T20:56:01.073Z,58.76
2022-08-09T20:59:04.398Z,58.96
2022-08-09T21:02:06.169Z,59.28
2022-08-09T21:05:54.619Z,60.07
2022-08-09T21:08:36.711Z,60.26
2022-08-09T21:15:02.694Z,60.81
2022-08-09T21:18:21.067Z,61.12
2022-08-09T21:21:46.353Z,61.38
2022-08-09T21:25:06.937Z,61.72
2022-08-09T21:28:11.857Z,62.07
2022-08-09T21:31:18.181Z,62.22
2022-08-09T21:34:29.555Z,62.31
2022-08-09T21:37:35.488Z,62.12
2022-08-09T21:40:50.704Z,62.71
2022-08-09T21:43:56.608Z,62.92
2022-08-09T21:46:59.602Z,63.67
2022-08-09T21:50:04.679Z,64.38
2022-08-09T21:53:15.641Z,64.78
2022-08-09T21:56:43.624Z,65.03
2022-08-09T21:59:47.729Z,65.54
2022-08-09T22:02:58.154Z,65.45
2022-08-09T22:06:01.129Z,65.50
2022-08-09T22:09:03.980Z,65.83
2022-08-09T22:12:18.416Z,66.38
2022-08-09T22:15:23.489Z,66.28
2022-08-09T22:18:53.388Z,66.27
2022-08-09T22:21:56.763Z,67.46
2022-08-09T22:26:06.706Z,67.56
2022-08-09T22:28:29.718Z,67.45
2022-08-09T22:31:35.782Z,67.11
2022-08-09T22:34:41.116Z,67.45
2022-08-09T22:37:42.961Z,67.38
2022-08-09T22:40:49.015Z,67.93
2022-08-09T22:44:02.249Z,68.13
2022-08-09T22:48:15.363Z,68.42
2022-08-09T22:50:27.995Z,68.41
2022-08-09T22:53:44.490Z,68.61
2022-08-09T22:56:54.747Z,68.79
2022-08-09T22:59:59.418Z,69.13
2022-08-09T23:03:01.225Z,69.17
2022-08-09T23:06:03.614Z,69.19
2022-08-09T23:09:06.811Z,68.95
2022-08-09T23:12:08.949Z,69.46
2022-08-09T23:15:10.738Z,69.31
2022-08-09T23:18:12.362Z,69.54
2022-08-09T23:21:15.858Z,69.60
2022-08-09T23:24:27.851Z,69.88
2022-08-09T23:27:29.418Z,69.92
2022-08-09T23:30:31.070Z,70.25
2022-08-09T23:33:32.822Z,70.45
2022-08-09T23:36:35.354Z,70.43
2022-08-09T23:39:37.049Z,70.79
2022-08-09T23:42:38.955Z,71.08
2022-08-09T23:45:42.355Z,71.35
2022-08-09T23:48:44.280Z,71.79
2022-08-09T23:51:46.175Z,71.64
2022-08-09T23:54:47.748Z,71.74
2022-08-09T23:58:06.693Z,71.87
